Time;durP1;ratioP1;P1;durP2;ratioP2;P2;SDS_P1;SDS_P2;PMS_P1;PMS_P2;Temp;Humidity;BMP_temperature;BMP_pressure;BME280_temperature;BME280_humidity;BME280_pressure;Samples;Min_cycle;Max_cycle;Signal;HPM_P1;HPM_P2
2023/07/20 00:02:23;;;;;;;1.63;1.50;;;22.00;62.60;;;;;;5048193;28;20043;-77
2023/07/20 00:04:49;;;;;;;2.78;2.22;;;21.90;62.70;;;;;;5051135;28;20093;-78
2023/07/20 00:07:15;;;;;;;2.25;2.05;;;21.90;62.80;;;;;;5040189;28;20097;-78
2023/07/20 00:09:40;;;;;;;3.17;1.98;;;21.80;62.90;;;;;;5038788;28;20022;-77
2023/07/20 00:12:06;;;;;;;2.13;1.92;;;21.80;63.10;;;;;;5040790;28;20509;-78
2023/07/20 00:14:32;;;;;;;3.63;1.88;;;21.70;63.30;;;;;;5024675;28;20729;-79
2023/07/20 00:16:58;;;;;;;2.22;2.03;;;21.70;63.30;;;;;;5026171;28;20026;-79
2023/07/20 00:19:27;;;;;;;4.85;2.05;;;21.70;63.20;;;;;;5026060;28;20072;-79
2023/07/20 00:21:54;;;;;;;2.47;1.75;;;21.70;63.20;;;;;;5027107;28;20018;-79
2023/07/20 00:24:20;;;;;;;3.15;1.90;;;21.70;63.40;;;;;;5024898;28;20030;-79
2023/07/20 00:26:46;;;;;;;2.38;2.03;;;21.70;63.50;;;;;;5027091;28;20113;-78
2023/07/20 00:29:12;;;;;;;3.25;1.92;;;21.70;63.30;;;;;;5020699;28;20034;-78
2023/07/20 00:31:38;;;;;;;4.70;2.80;;;21.60;63.30;;;;;;5025569;28;20089;-79
2023/07/20 00:34:04;;;;;;;2.90;2.15;;;21.60;63.50;;;;;;5021699;28;20049;-78
2023/07/20 00:36:30;;;;;;;2.15;1.95;;;21.50;63.60;;;;;;5023443;28;20336;-79
2023/07/20 00:38:55;;;;;;;3.20;2.15;;;21.50;63.90;;;;;;5025671;28;20046;-79
2023/07/20 00:41:21;;;;;;;4.57;1.88;;;21.60;63.90;;;;;;5024783;28;20021;-78
2023/07/20 00:43:47;;;;;;;2.40;1.88;;;21.60;63.80;;;;;;5024374;28;20022;-78
2023/07/20 00:46:13;;;;;;;4.95;1.95;;;21.70;63.80;;;;;;5021848;28;20062;-79
2023/07/20 00:48:43;;;;;;;3.05;1.88;;;21.70;63.50;;;;;;5026906;28;20018;-78
2023/07/20 00:51:10;;;;;;;3.30;1.90;;;21.70;63.30;;;;;;5019025;28;20022;-78
2023/07/20 00:53:36;;;;;;;2.42;1.55;;;21.70;63.60;;;;;;5016982;28;20026;-77
2023/07/20 00:56:01;;;;;;;3.08;1.70;;;21.60;63.70;;;;;;5017504;28;20064;-78
2023/07/20 00:58:27;;;;;;;1.85;1.67;;;21.60;63.70;;;;;;5023516;28;20034;-78
2023/07/20 01:00:53;;;;;;;2.70;1.73;;;21.60;63.70;;;;;;5026463;28;20495;-78
2023/07/20 01:03:19;;;;;;;3.08;1.73;;;21.60;63.70;;;;;;5023709;28;20049;-80
2023/07/20 01:06:08;;;;;;;1.90;1.50;;;21.60;63.70;;;;;;5019944;28;20068;-81
2023/07/20 01:08:47;;;;;;;5.15;1.80;;;21.60;63.90;;;;;;5012620;28;20053;-80
2023/07/20 01:11:46;;;;;;;2.03;1.60;;;21.50;64.00;;;;;;5019727;28;20037;-80
2023/07/20 01:14:12;;;;;;;2.33;1.80;;;21.50;64.30;;;;;;5022148;28;20053;-78
2023/07/20 01:16:37;;;;;;;3.05;1.73;;;21.40;64.40;;;;;;5019729;28;20032;-81
2023/07/20 01:19:04;;;;;;;5.18;2.17;;;21.40;64.60;;;;;;5016108;28;20096;-80
2023/07/20 01:21:58;;;;;;;2.17;1.67;;;21.30;64.80;;;;;;5017889;28;20040;-79
2023/07/20 01:24:46;;;;;;;5.10;2.28;;;21.30;65.00;;;;;;5013150;28;20125;-79
2023/07/20 01:27:44;;;;;;;2.50;1.83;;;21.30;65.20;;;;;;5017023;28;20018;-79
2023/07/20 01:30:51;;;;;;;1.88;1.65;;;21.30;65.30;;;;;;5013859;28;20029;-79
2023/07/20 01:33:19;;;;;;;2.15;1.40;;;21.30;65.20;;;;;;4995965;28;20529;-78
2023/07/20 01:35:48;;;;;;;1.20;1.10;;;21.30;65.40;;;;;;5017820;28;20022;-79
2023/07/20 01:38:15;;;;;;;2.38;1.77;;;21.30;65.40;;;;;;5017456;28;20033;-77
2023/07/20 01:40:41;;;;;;;3.65;1.60;;;21.40;65.30;;;;;;5021093;28;20018;-78
2023/07/20 01:43:06;;;;;;;2.45;1.58;;;21.40;65.20;;;;;;5022954;28;20084;-78
2023/07/20 01:45:32;;;;;;;2.63;1.70;;;21.40;65.20;;;;;;5021559;28;20498;-80
2023/07/20 01:47:58;;;;;;;1.50;1.40;;;21.40;65.00;;;;;;5018436;28;20060;-77
2023/07/20 01:50:23;;;;;;;2.75;1.63;;;21.40;65.10;;;;;;5016989;28;20494;-81
2023/07/20 01:52:49;;;;;;;1.63;1.50;;;21.40;65.10;;;;;;5023422;28;20034;-79
2023/07/20 01:55:14;;;;;;;2.03;1.60;;;21.40;64.50;;;;;;5025015;28;20026;-79
2023/07/20 01:57:40;;;;;;;4.05;2.28;;;21.40;63.90;;;;;;5020925;28;20026;-79
2023/07/20 02:00:06;;;;;;;2.58;1.73;;;21.40;63.90;;;;;;5025589;28;20441;-82
2023/07/20 02:02:32;;;;;;;2.42;1.65;;;21.30;63.90;;;;;;5031639;28;20029;-79
2023/07/20 02:04:58;;;;;;;2.22;2.03;;;21.30;63.30;;;;;;5018498;28;20044;-80
2023/07/20 02:07:24;;;;;;;2.55;2.10;;;21.30;63.80;;;;;;5016027;28;20033;-78
2023/07/20 02:09:49;;;;;;;2.08;1.63;;;21.30;64.20;;;;;;5018215;28;20518;-80
2023/07/20 02:12:15;;;;;;;1.55;1.45;;;21.30;64.30;;;;;;5020269;28;20030;-79
2023/07/20 02:14:40;;;;;;;2.25;2.00;;;21.30;64.40;;;;;;5015169;28;20052;-81
2023/07/20 02:17:06;;;;;;;1.70;1.50;;;21.30;64.70;;;;;;5025565;28;20029;-81
2023/07/20 02:19:32;;;;;;;2.80;1.48;;;21.30;65.10;;;;;;5038921;28;20391;-81
2023/07/20 02:21:58;;;;;;;1.85;1.45;;;21.30;65.20;;;;;;5039117;28;20025;-80
2023/07/20 02:24:25;;;;;;;2.28;1.70;;;21.30;65.30;;;;;;5036672;28;20482;-79
2023/07/20 02:26:50;;;;;;;1.45;1.35;;;21.30;65.20;;;;;;5039256;28;20367;-79
2023/07/20 02:29:16;;;;;;;1.67;1.45;;;21.20;65.40;;;;;;5038399;28;20048;-80
2023/07/20 02:31:42;;;;;;;1.67;1.50;;;21.20;65.50;;;;;;5037311;28;20079;-79
2023/07/20 02:34:09;;;;;;;2.92;1.92;;;21.10;65.50;;;;;;5028488;28;20056;-80
2023/07/20 02:36:35;;;;;;;3.53;1.98;;;21.20;65.60;;;;;;5031494;28;20026;-81
2023/07/20 02:39:03;;;;;;;1.58;1.45;;;21.10;65.60;;;;;;5024993;28;20093;-81
2023/07/20 02:41:33;;;;;;;2.10;1.83;;;21.10;65.60;;;;;;5020147;28;20037;-81
2023/07/20 02:43:58;;;;;;;1.90;1.60;;;21.00;65.60;;;;;;5019281;28;20053;-81
2023/07/20 02:46:24;;;;;;;2.63;1.63;;;21.00;65.60;;;;;;5019619;28;20026;-81
2023/07/20 02:48:50;;;;;;;2.90;1.92;;;21.00;65.60;;;;;;5017956;28;20482;-82
2023/07/20 02:51:15;;;;;;;2.33;1.50;;;20.90;65.40;;;;;;5018295;28;20049;-81
2023/07/20 02:53:41;;;;;;;1.38;1.25;;;21.00;65.40;;;;;;5018616;28;20025;-78
2023/07/20 02:56:07;;;;;;;2.42;1.55;;;21.00;65.40;;;;;;5023534;28;20089;-80
2023/07/20 02:58:36;;;;;;;8.40;1.80;;;20.90;65.50;;;;;;5018649;28;20034;-81
2023/07/20 03:01:02;;;;;;;5.38;1.67;;;20.90;65.00;;;;;;5019404;28;20049;-78
2023/07/20 03:03:28;;;;;;;1.42;1.30;;;20.90;65.10;;;;;;5017271;28;20022;-81
2023/07/20 03:05:55;;;;;;;1.58;1.20;;;20.90;65.60;;;;;;5019885;28;20061;-81
2023/07/20 03:08:21;;;;;;;2.22;1.17;;;20.80;66.90;;;;;;5018766;28;20113;-80
2023/07/20 03:10:47;;;;;;;1.52;1.27;;;20.60;68.50;;;;;;5017710;28;20038;-80
2023/07/20 03:13:13;;;;;;;2.17;1.30;;;20.30;69.60;;;;;;5017581;28;20052;-79
2023/07/20 03:15:39;;;;;;;1.95;1.38;;;20.20;70.50;;;;;;5019252;28;20113;-80
2023/07/20 03:18:05;;;;;;;2.58;1.40;;;20.00;71.30;;;;;;5019340;28;20518;-80
2023/07/20 03:20:31;;;;;;;1.10;1.00;;;20.00;71.80;;;;;;5020352;28;20022;-80
2023/07/20 03:22:57;;;;;;;1.10;1.10;;;19.90;72.00;;;;;;5027427;28;20026;-80
2023/07/20 03:25:23;;;;;;;0.85;0.85;;;19.90;72.40;;;;;;5043157;28;20080;-80
2023/07/20 03:27:48;;;;;;;1.13;1.00;;;19.90;72.70;;;;;;5044318;28;20243;-82
2023/07/20 03:30:14;;;;;;;1.35;1.10;;;19.90;72.80;;;;;;5045497;28;20068;-78
2023/07/20 03:32:40;;;;;;;2.08;1.00;;;20.00;73.20;;;;;;5043513;28;20028;-81
2023/07/20 03:35:06;;;;;;;1.85;1.17;;;19.90;73.20;;;;;;5039003;28;20028;-81
2023/07/20 03:37:32;;;;;;;2.30;1.20;;;19.90;73.40;;;;;;5041211;28;20047;-78
2023/07/20 03:39:57;;;;;;;1.00;0.80;;;19.80;74.70;;;;;;5043876;28;20033;-77
2023/07/20 03:42:23;;;;;;;1.23;1.00;;;19.80;75.10;;;;;;5032742;28;20052;-78
2023/07/20 03:44:50;;;;;;;1.17;1.08;;;19.50;75.50;;;;;;5019117;28;20026;-81
2023/07/20 03:47:16;;;;;;;1.17;1.15;;;19.40;76.30;;;;;;5032259;28;20109;-79
2023/07/20 03:49:41;;;;;;;1.58;0.70;;;19.30;77.20;;;;;;5042421;28;20095;-77
2023/07/20 03:52:07;;;;;;;1.00;1.00;;;19.30;77.80;;;;;;5023976;28;20313;-77
2023/07/20 03:54:33;;;;;;;1.52;0.80;;;19.30;78.10;;;;;;5019615;28;20045;-81
2023/07/20 03:56:59;;;;;;;0.93;0.60;;;19.30;78.20;;;;;;5023611;28;20021;-79
2023/07/20 03:59:25;;;;;;;0.93;0.80;;;19.30;78.00;;;;;;5022245;28;20056;-78
2023/07/20 04:01:50;;;;;;;0.80;0.80;;;19.30;77.80;;;;;;5038071;28;20033;-79
2023/07/20 04:04:16;;;;;;;0.80;0.80;;;19.30;77.90;;;;;;5048720;28;20124;-77
2023/07/20 04:06:44;;;;;;;0.73;0.73;;;19.30;77.90;;;;;;5047644;28;20021;-78
2023/07/20 04:09:11;;;;;;;1.20;0.90;;;19.30;78.00;;;;;;5040894;28;20052;-80
2023/07/20 04:11:37;;;;;;;4.95;1.00;;;19.30;78.10;;;;;;5033458;28;20029;-81
2023/07/20 04:14:02;;;;;;;0.88;0.88;;;19.20;78.60;;;;;;5017501;28;20088;-80
2023/07/20 04:16:28;;;;;;;1.23;1.13;;;19.30;79.00;;;;;;5019871;28;20030;-79
2023/07/20 04:18:57;;;;;;;0.75;0.75;;;19.30;78.80;;;;;;5019237;28;20030;-78
2023/07/20 04:21:25;;;;;;;0.80;0.80;;;19.30;79.10;;;;;;5019906;28;20136;-80
2023/07/20 04:23:51;;;;;;;1.08;0.80;;;19.30;79.00;;;;;;5018229;28;20017;-81
2023/07/20 04:26:17;;;;;;;1.13;1.02;;;19.30;78.90;;;;;;5018628;28;20037;-79
2023/07/20 04:28:42;;;;;;;1.23;1.17;;;19.30;79.10;;;;;;5025609;28;20054;-78
2023/07/20 04:31:12;;;;;;;1.25;1.15;;;19.30;79.00;;;;;;5020321;28;20078;-80
2023/07/20 04:33:38;;;;;;;2.22;1.08;;;19.30;78.30;;;;;;5022762;28;20111;-81
2023/07/20 04:36:04;;;;;;;1.20;1.10;;;19.30;78.30;;;;;;5022277;28;20042;-80
2023/07/20 04:38:30;;;;;;;1.17;0.88;;;19.40;78.10;;;;;;5019955;28;20037;-79
2023/07/20 04:40:55;;;;;;;1.33;1.17;;;19.40;77.90;;;;;;5023350;28;20052;-82
2023/07/20 04:43:21;;;;;;;2.72;1.83;;;19.40;77.60;;;;;;5029914;28;20047;-77
2023/07/20 04:45:47;;;;;;;0.85;0.85;;;19.50;77.20;;;;;;5041327;28;20037;-78
2023/07/20 04:48:15;;;;;;;1.30;1.20;;;19.50;77.20;;;;;;5033552;28;20050;-77
2023/07/20 04:50:41;;;;;;;1.75;1.20;;;19.50;76.90;;;;;;5034389;28;20026;-79
2023/07/20 04:53:10;;;;;;;1.90;1.35;;;19.50;76.30;;;;;;5026699;28;20042;-77
2023/07/20 04:55:36;;;;;;;1.85;1.45;;;19.50;76.00;;;;;;5020532;28;20014;-80
2023/07/20 04:58:03;;;;;;;1.65;1.40;;;19.50;76.20;;;;;;5019525;28;20077;-81
2023/07/20 05:00:38;;;;;;;1.48;1.38;;;19.50;76.50;;;;;;5020979;28;20025;-80
2023/07/20 05:03:05;;;;;;;2.35;1.60;;;19.50;76.60;;;;;;5038736;28;20052;-80
2023/07/20 05:05:31;;;;;;;1.13;1.05;;;19.50;76.10;;;;;;5039891;28;20101;-84
2023/07/20 05:07:57;;;;;;;1.20;1.05;;;19.50;75.80;;;;;;5048669;28;20056;-76
2023/07/20 05:10:24;;;;;;;1.80;1.40;;;19.60;75.70;;;;;;5040950;28;20030;-79
2023/07/20 05:12:49;;;;;;;1.52;1.42;;;19.60;75.30;;;;;;5029421;28;20034;-77
2023/07/20 05:15:15;;;;;;;6.03;1.33;;;19.70;75.00;;;;;;5017340;28;20252;-80
2023/07/20 05:17:41;;;;;;;3.38;1.30;;;19.70;74.50;;;;;;5020513;28;20109;-80
2023/07/20 05:20:09;;;;;;;1.85;1.60;;;19.70;73.90;;;;;;5029790;28;20029;-80
2023/07/20 05:22:36;;;;;;;2.50;1.60;;;19.80;73.40;;;;;;5037671;28;20044;-80
2023/07/20 05:25:02;;;;;;;1.58;1.38;;;19.90;72.40;;;;;;5036317;28;20030;-80
2023/07/20 05:27:27;;;;;;;3.45;2.03;;;19.90;71.30;;;;;;5038153;28;20044;-80
2023/07/20 05:29:53;;;;;;;1.50;1.40;;;19.90;69.20;;;;;;5036943;28;20438;-81
2023/07/20 05:32:19;;;;;;;1.65;1.42;;;19.90;69.30;;;;;;5039142;28;20029;-80
2023/07/20 05:34:44;;;;;;;1.75;1.30;;;19.90;68.50;;;;;;5036029;28;20446;-80
2023/07/20 05:37:11;;;;;;;3.60;1.60;;;20.00;69.90;;;;;;5042100;28;20367;-80
2023/07/20 05:39:37;;;;;;;1.77;1.60;;;19.90;69.00;;;;;;5038382;28;20145;-80
2023/07/20 05:42:02;;;;;;;2.13;1.67;;;19.90;68.80;;;;;;5034353;28;20454;-78
2023/07/20 05:44:28;;;;;;;3.65;1.45;;;20.00;68.50;;;;;;5017758;28;20058;-79
2023/07/20 05:46:54;;;;;;;2.30;1.40;;;20.00;67.10;;;;;;5017044;28;20379;-79
2023/07/20 05:49:19;;;;;;;3.38;1.27;;;20.00;66.80;;;;;;5016509;28;20060;-80
2023/07/20 05:51:46;;;;;;;3.90;1.42;;;19.90;66.60;;;;;;5030661;28;20048;-80
2023/07/20 05:54:12;;;;;;;2.30;1.77;;;20.00;66.70;;;;;;5033827;28;20108;-81
2023/07/20 05:56:37;;;;;;;2.08;1.40;;;20.00;66.40;;;;;;5034431;28;20052;-79
2023/07/20 05:59:03;;;;;;;2.38;1.95;;;20.00;66.10;;;;;;5036410;28;20091;-80
2023/07/20 06:01:29;;;;;;;1.80;1.70;;;20.10;66.00;;;;;;5039493;28;20085;-80
2023/07/20 06:03:54;;;;;;;4.13;1.60;;;20.10;65.60;;;;;;5037121;28;20147;-77
2023/07/20 06:06:20;;;;;;;1.70;1.40;;;20.10;64.80;;;;;;5037465;28;20021;-80
2023/07/20 06:08:46;;;;;;;3.15;1.70;;;20.20;64.80;;;;;;5036050;28;20033;-80
2023/07/20 06:11:11;;;;;;;2.65;1.40;;;20.20;64.00;;;;;;5038420;28;20024;-80
2023/07/20 06:13:37;;;;;;;2.22;1.55;;;20.30;63.80;;;;;;5024742;28;20032;-80
2023/07/20 06:16:03;;;;;;;3.70;1.60;;;20.50;63.40;;;;;;5018761;28;20040;-81
2023/07/20 06:18:30;;;;;;;1.80;1.70;;;20.70;62.50;;;;;;5018913;28;20029;-78
2023/07/20 06:20:56;;;;;;;1.92;1.73;;;20.80;62.10;;;;;;5023585;28;20021;-78
2023/07/20 06:23:22;;;;;;;1.48;1.30;;;22.00;62.10;;;;;;5019855;28;20029;-80
2023/07/20 06:25:48;;;;;;;3.80;1.88;;;23.50;57.40;;;;;;5019620;28;20399;-80
2023/07/20 06:28:14;;;;;;;2.92;1.77;;;24.00;55.20;;;;;;5019559;28;20107;-77
2023/07/20 06:30:40;;;;;;;2.20;1.73;;;23.80;54.70;;;;;;5017584;28;20379;-78
2023/07/20 06:33:07;;;;;;;1.90;1.70;;;23.40;55.20;;;;;;5017637;28;20030;-78
2023/07/20 06:35:33;;;;;;;2.25;1.98;;;23.00;56.30;;;;;;5019510;28;20030;-77
2023/07/20 06:38:00;;;;;;;2.38;2.00;;;22.80;56.50;;;;;;5021828;28;20041;-78
2023/07/20 06:40:26;;;;;;;1.83;1.33;;;22.60;57.00;;;;;;5022894;28;20021;-78
2023/07/20 06:42:52;;;;;;;4.00;2.03;;;22.50;57.20;;;;;;5021719;28;20050;-78
2023/07/20 06:45:17;;;;;;;4.32;2.00;;;22.60;57.00;;;;;;5028517;28;20030;-80
2023/07/20 06:47:43;;;;;;;3.53;2.00;;;22.70;56.60;;;;;;5025787;28;20055;-81
2023/07/20 06:50:10;;;;;;;4.32;1.92;;;22.60;56.20;;;;;;5019631;28;20075;-81
2023/07/20 06:52:36;;;;;;;3.05;2.13;;;22.30;56.90;;;;;;5021085;28;20057;-81
2023/07/20 06:55:02;;;;;;;3.92;2.00;;;22.10;57.60;;;;;;5024048;28;20084;-79
2023/07/20 06:57:28;;;;;;;4.22;2.00;;;21.80;58.40;;;;;;5033904;28;20029;-79
2023/07/20 06:59:54;;;;;;;2.63;1.80;;;21.60;58.80;;;;;;5022637;28;20447;-78
2023/07/20 07:02:20;;;;;;;5.35;1.90;;;;;;;;;;5025936;28;20514;-80
2023/07/20 07:04:46;;;;;;;3.13;2.70;;;;;;;;;;5025685;28;20018;-80
2023/07/20 07:07:14;;;;;;;2.42;2.22;;;23.60;53.80;;;;;;5025194;28;20041;-79
2023/07/20 07:09:40;;;;;;;1.90;1.75;;;23.50;54.60;;;;;;5021949;28;20544;-80
2023/07/20 07:12:07;;;;;;;2.15;1.80;;;23.10;55.60;;;;;;5021782;28;20375;-80
2023/07/20 07:14:32;;;;;;;2.70;1.90;;;23.20;55.60;;;;;;5024339;28;20153;-79
2023/07/20 07:16:58;;;;;;;2.63;1.85;;;23.30;55.70;;;;;;5021783;28;20141;-81
2023/07/20 07:19:24;;;;;;;3.50;1.70;;;23.60;55.60;;;;;;5026176;28;20212;-81
2023/07/20 07:21:50;;;;;;;3.00;1.90;;;24.00;54.20;;;;;;5029317;28;20026;-78
2023/07/20 07:24:15;;;;;;;1.88;1.42;;;24.10;53.50;;;;;;5026534;28;20121;-82
2023/07/20 07:26:41;;;;;;;3.50;2.22;;;24.20;53.70;;;;;;5024140;28;20029;-81
2023/07/20 07:29:07;;;;;;;1.75;1.65;;;24.30;53.10;;;;;;5026276;28;20033;-81
2023/07/20 07:31:38;;;;;;;1.85;1.52;;;24.30;53.40;;;;;;5042644;28;20025;-82
2023/07/20 07:34:04;;;;;;;2.47;1.38;;;24.10;53.10;;;;;;5043304;28;20056;-81
2023/07/20 07:36:31;;;;;;;1.67;1.50;;;24.00;53.30;;;;;;5041847;28;20025;-80
2023/07/20 07:38:57;;;;;;;1.77;1.40;;;23.90;53.40;;;;;;5043332;28;20025;-82
2023/07/20 07:41:22;;;;;;;1.17;1.17;;;23.80;52.80;;;;;;5043179;28;20029;-80
2023/07/20 07:43:48;;;;;;;1.65;1.40;;;23.70;52.90;;;;;;5027025;28;20014;-79
2023/07/20 07:46:14;;;;;;;1.50;1.40;;;23.70;52.70;;;;;;5030357;28;20105;-79
2023/07/20 07:48:40;;;;;;;2.33;1.00;;;23.70;52.80;;;;;;5043266;28;20022;-80
2023/07/20 07:51:05;;;;;;;1.50;1.40;;;23.90;52.60;;;;;;5044430;28;20025;-81
2023/07/20 07:53:32;;;;;;;1.95;1.17;;;24.00;52.10;;;;;;5043719;28;20071;-81
2023/07/20 07:55:58;;;;;;;1.60;1.42;;;24.00;52.00;;;;;;5043640;28;20075;-77
2023/07/20 07:58:23;;;;;;;1.75;1.55;;;24.10;51.80;;;;;;5043415;28;20061;-81
2023/07/20 08:00:49;;;;;;;1.42;1.33;;;24.20;51.90;;;;;;5042122;28;20030;-80
2023/07/20 08:03:15;;;;;;;2.65;1.55;;;24.50;51.20;;;;;;5041383;28;20056;-82
2023/07/20 08:05:41;;;;;;;1.52;1.42;;;24.50;50.80;;;;;;5040874;28;20033;-82
2023/07/20 08:08:08;;;;;;;1.70;1.60;;;24.70;50.90;;;;;;5043121;28;20060;-82
2023/07/20 08:10:34;;;;;;;1.80;1.15;;;24.80;50.10;;;;;;5044448;28;20109;-80
2023/07/20 08:13:00;;;;;;;2.35;1.73;;;25.00;49.80;;;;;;5037225;28;20029;-78
2023/07/20 08:15:25;;;;;;;1.63;1.23;;;25.20;49.40;;;;;;5023714;28;20034;-81
2023/07/20 08:17:51;;;;;;;1.45;1.35;;;25.30;49.40;;;;;;5027560;28;20097;-81
2023/07/20 08:20:18;;;;;;;2.28;1.42;;;25.40;49.60;;;;;;5049048;28;20022;-79
2023/07/20 08:22:43;;;;;;;1.80;1.55;;;25.50;49.50;;;;;;5051041;28;20065;-80
2023/07/20 08:25:09;;;;;;;2.22;1.95;;;25.60;49.50;;;;;;5056508;28;20037;-80
2023/07/20 08:27:36;;;;;;;3.47;1.80;;;25.80;48.70;;;;;;5057169;28;20021;-78
2023/07/20 08:30:02;;;;;;;5.00;2.13;;;25.80;48.80;;;;;;5056935;28;20009;-78
2023/07/20 08:32:28;;;;;;;3.08;2.08;;;25.80;47.50;;;;;;5057022;28;20331;-77
2023/07/20 08:34:53;;;;;;;2.70;2.05;;;25.50;48.20;;;;;;5055640;28;20030;-78
2023/07/20 08:37:19;;;;;;;3.33;1.90;;;25.40;48.30;;;;;;5055362;28;20053;-78
2023/07/20 08:39:45;;;;;;;1.73;1.60;;;25.40;48.70;;;;;;5056870;28;20025;-79
2023/07/20 08:42:12;;;;;;;1.85;1.70;;;25.50;49.30;;;;;;5054233;28;20074;-77
2023/07/20 08:44:39;;;;;;;2.05;1.70;;;25.60;49.30;;;;;;5036317;28;20085;-77
2023/07/20 08:47:07;;;;;;;2.00;1.63;;;25.80;49.10;;;;;;5036850;28;20056;-78
2023/07/20 08:49:33;;;;;;;1.80;1.70;;;26.00;49.20;;;;;;5036637;28;20025;-78
2023/07/20 08:52:00;;;;;;;2.20;1.58;;;26.10;49.00;;;;;;5047345;28;20021;-78
2023/07/20 08:54:32;;;;;;;1.45;1.27;;;26.30;48.50;;;;;;5038564;28;20026;-78
2023/07/20 08:57:03;;;;;;;2.65;1.77;;;26.20;49.30;;;;;;5056393;28;20048;-77
2023/07/20 08:59:30;;;;;;;1.95;1.48;;;26.20;48.60;;;;;;5053127;28;20040;-78
2023/07/20 09:01:58;;;;;;;3.13;1.88;;;26.30;48.80;;;;;;5055377;28;20061;-78
2023/07/20 09:04:24;;;;;;;1.50;1.40;;;26.60;48.70;;;;;;5054369;28;20018;-78
2023/07/20 09:06:50;;;;;;;2.00;1.90;;;26.80;48.30;;;;;;5044988;28;20041;-79
2023/07/20 09:09:15;;;;;;;1.88;1.52;;;26.70;48.20;;;;;;5041705;28;20022;-80
2023/07/20 09:11:41;;;;;;;2.72;1.90;;;26.60;47.20;;;;;;5039940;28;20025;-80
2023/07/20 09:14:09;;;;;;;2.58;1.52;;;26.50;45.90;;;;;;5022006;28;20180;-81
2023/07/20 09:16:51;;;;;;;2.17;1.83;;;26.20;46.50;;;;;;5021877;28;20026;-82
2023/07/20 09:19:17;;;;;;;1.58;1.48;;;26.10;46.30;;;;;;5021364;28;20529;-79
2023/07/20 09:21:51;;;;;;;1.95;1.40;;;25.90;47.10;;;;;;5021899;28;20034;-82
2023/07/20 09:24:20;;;;;;;2.20;1.40;;;25.80;47.30;;;;;;5023449;28;20053;-81
2023/07/20 09:26:48;;;;;;;2.97;1.30;;;25.70;47.00;;;;;;5031749;28;20067;-81
2023/07/20 09:29:18;;;;;;;2.13;1.50;;;25.40;47.30;;;;;;5039817;28;20348;-80
2023/07/20 09:32:02;;;;;;;3.38;1.63;;;24.90;47.50;;;;;;5038817;28;20041;-80
2023/07/20 09:34:31;;;;;;;3.15;1.73;;;24.60;48.40;;;;;;5038482;28;20120;-79
2023/07/20 09:36:58;;;;;;;3.00;1.50;;;24.60;49.10;;;;;;5039898;28;20018;-80
2023/07/20 09:39:24;;;;;;;1.67;1.38;;;24.70;48.60;;;;;;5038973;28;20017;-79
2023/07/20 09:41:51;;;;;;;1.30;1.20;;;24.70;48.80;;;;;;5027851;28;20547;-81
2023/07/20 09:44:16;;;;;;;1.10;1.05;;;25.00;48.70;;;;;;5019274;28;20112;-80
2023/07/20 09:46:50;;;;;;;1.40;1.30;;;25.30;48.10;;;;;;5018789;28;20116;-79
2023/07/20 09:49:19;;;;;;;2.70;1.50;;;25.60;47.50;;;;;;5019109;28;20034;-80
2023/07/20 09:51:46;;;;;;;2.72;1.67;;;26.00;46.90;;;;;;5018591;28;20033;-80
2023/07/20 09:54:13;;;;;;;1.88;1.50;;;26.10;46.10;;;;;;5022693;28;20033;-81
2023/07/20 09:56:40;;;;;;;3.63;1.80;;;26.00;45.80;;;;;;5020371;28;20033;-81
2023/07/20 09:59:06;;;;;;;1.60;1.50;;;26.10;46.10;;;;;;5021815;28;20018;-81
2023/07/20 10:01:34;;;;;;;4.00;1.55;;;26.40;45.90;;;;;;5022579;28;20530;-77
2023/07/20 10:04:04;;;;;;;1.75;1.45;;;26.60;45.20;;;;;;5020577;28;20022;-81
2023/07/20 10:06:32;;;;;;;3.50;1.88;;;26.80;45.40;;;;;;5018995;28;20030;-81
2023/07/20 10:09:03;;;;;;;1.70;1.50;;;27.00;45.30;;;;;;5019053;28;20042;-80
2023/07/20 10:11:36;;;;;;;1.38;1.27;;;;;;;;;;5018839;28;20045;-81
2023/07/20 10:14:06;;;;;;;2.30;1.48;;;27.30;44.70;;;;;;5018047;28;20024;-79
2023/07/20 10:16:39;;;;;;;1.38;1.27;;;27.50;45.00;;;;;;5010982;28;20018;-79
2023/07/20 10:19:30;;;;;;;2.45;1.50;;;27.20;45.00;;;;;;5015908;28;20036;-78
2023/07/20 10:22:03;;;;;;;2.58;1.95;;;26.70;45.50;;;;;;5016526;28;20094;-82
2023/07/20 10:24:31;;;;;;;1.88;1.52;;;26.20;46.20;;;;;;5017738;28;20025;-79
2023/07/20 10:26:58;;;;;;;2.40;1.67;;;26.00;46.80;;;;;;5018770;28;20041;-81
2023/07/20 10:29:24;;;;;;;3.92;2.38;;;25.60;47.00;;;;;;5021710;28;20422;-81
2023/07/20 10:31:50;;;;;;;3.00;2.00;;;25.30;48.00;;;;;;5035174;28;20032;-81
2023/07/20 10:34:16;;;;;;;1.67;1.58;;;25.10;48.50;;;;;;5040553;28;20021;-83
2023/07/20 10:36:48;;;;;;;1.98;1.75;;;24.90;49.20;;;;;;5042574;28;20061;-78
2023/07/20 10:39:30;;;;;;;2.53;1.75;;;24.80;49.80;;;;;;5040552;28;20021;-82
2023/07/20 10:42:11;;;;;;;1.63;1.52;;;24.80;49.70;;;;;;5044180;28;20044;-78
2023/07/20 10:44:38;;;;;;;2.08;1.45;;;25.00;49.90;;;;;;5022835;28;20443;-80
2023/07/20 10:47:09;;;;;;;1.85;1.60;;;25.40;49.60;;;;;;5030587;28;20088;-80
2023/07/20 10:49:55;;;;;;;1.98;1.80;;;26.00;48.60;;;;;;5032121;28;20055;-80
2023/07/20 10:52:20;;;;;;;1.85;1.70;;;26.50;47.70;;;;;;5021592;28;20131;-80
2023/07/20 10:54:50;;;;;;;2.63;2.42;;;26.70;47.20;;;;;;5023383;28;20030;-81
2023/07/20 10:57:42;;;;;;;2.53;1.90;;;26.80;46.40;;;;;;5021139;28;20033;-80
2023/07/20 11:00:13;;;;;;;4.05;1.80;;;26.60;46.90;;;;;;5018004;28;20550;-81
2023/07/20 11:02:49;;;;;;;3.03;2.50;;;26.50;46.70;;;;;;5022808;28;20036;-79
2023/07/20 11:05:40;;;;;;;2.83;2.53;;;26.30;46.90;;;;;;5024059;28;20064;-80
2023/07/20 11:08:10;;;;;;;1.90;1.80;;;25.90;47.70;;;;;;5016844;28;20037;-78
2023/07/20 11:10:36;;;;;;;3.10;2.03;;;25.80;48.50;;;;;;5024122;28;20022;-81
2023/07/20 11:13:22;;;;;;;2.05;1.80;;;26.00;48.30;;;;;;5022211;28;20033;-82
2023/07/20 11:16:03;;;;;;;2.90;2.25;;;26.10;47.30;;;;;;5021221;28;20030;-81
2023/07/20 11:18:30;;;;;;;1.80;1.70;;;26.20;47.60;;;;;;5022164;28;20022;-81
2023/07/20 11:20:56;;;;;;;1.63;1.52;;;26.50;47.90;;;;;;5024938;28;20034;-82
2023/07/20 11:23:22;;;;;;;1.70;1.60;;;26.90;47.40;;;;;;5027086;28;20069;-81
2023/07/20 11:25:49;;;;;;;2.70;2.20;;;27.50;46.40;;;;;;5023085;28;20514;-81
2023/07/20 11:28:15;;;;;;;3.10;2.03;;;27.60;45.40;;;;;;5021752;28;20037;-79
2023/07/20 11:30:41;;;;;;;1.83;1.52;;;27.30;45.40;;;;;;5024154;28;20025;-80
2023/07/20 11:33:10;;;;;;;1.70;1.60;;;27.20;46.10;;;;;;5026962;28;20036;-80
2023/07/20 11:35:43;;;;;;;1.60;1.50;;;27.20;46.10;;;;;;5022940;28;20040;-80
2023/07/20 11:38:08;;;;;;;2.10;1.65;;;27.30;45.70;;;;;;5041334;28;20025;-80
2023/07/20 11:40:34;;;;;;;1.63;1.52;;;27.30;45.50;;;;;;5043160;28;20029;-81
2023/07/20 11:43:00;;;;;;;1.52;1.42;;;27.30;45.70;;;;;;5037181;28;20021;-80
2023/07/20 11:45:27;;;;;;;1.45;1.35;;;27.50;45.80;;;;;;5024906;28;20105;-81
2023/07/20 11:47:53;;;;;;;2.60;1.40;;;27.60;45.40;;;;;;5024241;28;20036;-80
2023/07/20 11:50:18;;;;;;;1.23;1.20;;;27.40;44.80;;;;;;5024398;28;20468;-82
2023/07/20 11:52:45;;;;;;;1.40;1.30;;;27.30;45.30;;;;;;5032416;28;20048;-80
2023/07/20 11:55:12;;;;;;;1.50;1.40;;;27.30;46.00;;;;;;5042766;28;20036;-81
2023/07/20 11:57:38;;;;;;;3.35;2.22;;;27.30;46.30;;;;;;5041739;28;20022;-81
2023/07/20 12:00:09;;;;;;;3.42;1.90;;;27.20;45.30;;;;;;5041217;28;20032;-80
2023/07/20 12:02:35;;;;;;;4.25;2.15;;;27.00;45.60;;;;;;5042342;28;20022;-81
2023/07/20 12:05:03;;;;;;;2.78;1.98;;;27.00;45.80;;;;;;5044300;28;20045;-77
2023/07/20 12:07:29;;;;;;;2.65;2.00;;;26.80;45.90;;;;;;5042098;28;20032;-80
2023/07/20 12:10:10;;;;;;;1.83;1.70;;;26.60;46.30;;;;;;5031691;28;20036;-80
2023/07/20 12:12:43;;;;;;;1.58;1.48;;;26.60;46.50;;;;;;5014681;28;20078;-78
2023/07/20 12:15:21;;;;;;;1.92;1.58;;;26.70;46.50;;;;;;5036770;28;20038;-78
2023/07/20 12:17:50;;;;;;;2.92;1.50;;;26.60;46.10;;;;;;5037726;28;20068;-78
2023/07/20 12:20:37;;;;;;;2.25;1.52;;;26.50;46.60;;;;;;5035714;28;20002;-78
2023/07/20 12:23:05;;;;;;;2.28;1.77;;;26.40;47.00;;;;;;5034847;28;20022;-79
2023/07/20 12:25:41;;;;;;;1.98;1.88;;;26.70;47.00;;;;;;5036437;28;20104;-79
2023/07/20 12:28:09;;;;;;;2.95;1.77;;;26.90;46.30;;;;;;5041222;28;20071;-81
2023/07/20 12:30:35;;;;;;;2.75;1.40;;;26.90;46.90;;;;;;5040491;28;20029;-80
2023/07/20 12:33:02;;;;;;;1.80;1.70;;;27.00;46.50;;;;;;5041592;28;20155;-79
2023/07/20 12:35:29;;;;;;;2.50;1.70;;;27.50;45.60;;;;;;5040794;28;20033;-80
2023/07/20 12:37:55;;;;;;;1.17;1.17;;;27.90;45.40;;;;;;5040664;28;20017;-80
2023/07/20 12:40:21;;;;;;;2.60;1.60;;;28.30;44.80;;;;;;5040875;28;20033;-80
2023/07/20 12:42:46;;;;;;;3.60;1.50;;;28.80;44.10;;;;;;5031721;28;20025;-79
2023/07/20 12:45:13;;;;;;;2.47;1.83;;;28.90;43.60;;;;;;5020820;28;20485;-79
2023/07/20 12:47:40;;;;;;;2.30;1.90;;;29.10;42.80;;;;;;5022561;28;20026;-80
2023/07/20 12:50:06;;;;;;;2.60;1.80;;;28.90;43.00;;;;;;5019929;28;20029;-79
2023/07/20 12:52:36;;;;;;;3.85;1.60;;;28.30;43.40;;;;;;5021141;28;20084;-79